sensor_id;sensor_type;location;lat;lon;timestamp;P1;durP1;ratioP1;P2;durP2;ratioP2
66546;SDS011;53400;50.364;14.874;2023-03-04T00:01:52;32.50;;;12.40;;
66546;SDS011;53400;50.364;14.874;2023-03-04T00:04:20;35.97;;;12.20;;
66546;SDS011;53400;50.364;14.874;2023-03-04T00:06:47;30.60;;;12.40;;
66546;SDS011;53400;50.364;14.874;2023-03-04T00:09:16;35.03;;;11.23;;
66546;SDS011;53400;50.364;14.874;2023-03-04T00:11:42;29.85;;;10.98;;
66546;SDS011;53400;50.364;14.874;2023-03-04T00:16:37;27.80;;;10.10;;
66546;SDS011;53400;50.364;14.874;2023-03-04T00:19:04;28.05;;;10.18;;
66546;SDS011;53400;50.364;14.874;2023-03-04T00:21:31;29.83;;;10.52;;
66546;SDS011;53400;50.364;14.874;2023-03-04T00:23:59;22.83;;;10.75;;
66546;SDS011;53400;50.364;14.874;2023-03-04T00:26:28;31.08;;;11.85;;
66546;SDS011;53400;50.364;14.874;2023-03-04T00:28:57;33.13;;;11.02;;
66546;SDS011;53400;50.364;14.874;2023-03-04T00:31:24;25.67;;;9.88;;
66546;SDS011;53400;50.364;14.874;2023-03-04T00:33:51;24.10;;;9.63;;
66546;SDS011;53400;50.364;14.874;2023-03-04T00:36:18;27.10;;;10.38;;
66546;SDS011;53400;50.364;14.874;2023-03-04T00:38:45;27.42;;;10.60;;
66546;SDS011;53400;50.364;14.874;2023-03-04T00:41:13;30.65;;;11.45;;
66546;SDS011;53400;50.364;14.874;2023-03-04T00:43:40;30.55;;;11.32;;
66546;SDS011;53400;50.364;14.874;2023-03-04T00:46:06;27.83;;;10.35;;
66546;SDS011;53400;50.364;14.874;2023-03-04T00:48:32;27.40;;;10.60;;
66546;SDS011;53400;50.364;14.874;2023-03-04T00:50:57;26.52;;;9.52;;
66546;SDS011;53400;50.364;14.874;2023-03-04T00:53:23;27.25;;;10.82;;
66546;SDS011;53400;50.364;14.874;2023-03-04T00:55:49;25.98;;;9.40;;
66546;SDS011;53400;50.364;14.874;2023-03-04T00:58:15;28.55;;;11.43;;
66546;SDS011;53400;50.364;14.874;2023-03-04T01:00:42;30.83;;;10.82;;
66546;SDS011;53400;50.364;14.874;2023-03-04T01:03:08;28.20;;;13.07;;
66546;SDS011;53400;50.364;14.874;2023-03-04T01:05:34;28.00;;;9.98;;
66546;SDS011;53400;50.364;14.874;2023-03-04T01:08:00;29.52;;;10.77;;
66546;SDS011;53400;50.364;14.874;2023-03-04T01:10:26;29.80;;;10.32;;
66546;SDS011;53400;50.364;14.874;2023-03-04T01:12:52;27.38;;;10.10;;
66546;SDS011;53400;50.364;14.874;2023-03-04T01:15:18;26.23;;;10.73;;
66546;SDS011;53400;50.364;14.874;2023-03-04T01:17:46;31.58;;;11.38;;
66546;SDS011;53400;50.364;14.874;2023-03-04T01:20:12;30.75;;;10.95;;
66546;SDS011;53400;50.364;14.874;2023-03-04T01:22:38;26.55;;;10.68;;
66546;SDS011;53400;50.364;14.874;2023-03-04T01:25:05;31.67;;;11.82;;
66546;SDS011;53400;50.364;14.874;2023-03-04T01:27:31;26.77;;;10.77;;
66546;SDS011;53400;50.364;14.874;2023-03-04T01:29:57;31.27;;;10.68;;
66546;SDS011;53400;50.364;14.874;2023-03-04T01:32:23;29.00;;;10.68;;
66546;SDS011;53400;50.364;14.874;2023-03-04T01:34:50;24.88;;;9.45;;
66546;SDS011;53400;50.364;14.874;2023-03-04T01:37:16;29.02;;;10.88;;
66546;SDS011;53400;50.364;14.874;2023-03-04T01:39:42;31.35;;;11.02;;
66546;SDS011;53400;50.364;14.874;2023-03-04T01:42:10;24.95;;;10.60;;
66546;SDS011;53400;50.364;14.874;2023-03-04T01:44:42;33.45;;;15.10;;
66546;SDS011;53400;50.364;14.874;2023-03-04T01:47:08;29.92;;;13.05;;
66546;SDS011;53400;50.364;14.874;2023-03-04T01:49:34;23.95;;;9.77;;
66546;SDS011;53400;50.364;14.874;2023-03-04T01:52:02;33.08;;;12.52;;
66546;SDS011;53400;50.364;14.874;2023-03-04T01:54:28;30.73;;;11.45;;
66546;SDS011;53400;50.364;14.874;2023-03-04T01:56:54;28.00;;;11.70;;
66546;SDS011;53400;50.364;14.874;2023-03-04T01:59:23;24.17;;;11.05;;
66546;SDS011;53400;50.364;14.874;2023-03-04T02:01:52;27.02;;;11.30;;
66546;SDS011;53400;50.364;14.874;2023-03-04T02:04:20;25.45;;;9.25;;
66546;SDS011;53400;50.364;14.874;2023-03-04T02:06:48;26.88;;;10.25;;
66546;SDS011;53400;50.364;14.874;2023-03-04T02:09:16;30.45;;;10.90;;
66546;SDS011;53400;50.364;14.874;2023-03-04T02:11:43;24.08;;;10.13;;
66546;SDS011;53400;50.364;14.874;2023-03-04T02:14:10;27.27;;;9.45;;
66546;SDS011;53400;50.364;14.874;2023-03-04T02:16:37;26.20;;;9.43;;
66546;SDS011;53400;50.364;14.874;2023-03-04T02:19:04;27.45;;;10.38;;
66546;SDS011;53400;50.364;14.874;2023-03-04T02:21:35;26.42;;;10.50;;
66546;SDS011;53400;50.364;14.874;2023-03-04T02:24:02;27.77;;;9.43;;
66546;SDS011;53400;50.364;14.874;2023-03-04T02:26:37;23.50;;;8.50;;
66546;SDS011;53400;50.364;14.874;2023-03-04T02:29:05;22.70;;;9.13;;
66546;SDS011;53400;50.364;14.874;2023-03-04T02:31:34;25.30;;;9.18;;
66546;SDS011;53400;50.364;14.874;2023-03-04T02:34:02;29.55;;;9.93;;
66546;SDS011;53400;50.364;14.874;2023-03-04T02:36:31;24.27;;;8.68;;
66546;SDS011;53400;50.364;14.874;2023-03-04T02:39:03;28.13;;;9.25;;
66546;SDS011;53400;50.364;14.874;2023-03-04T02:43:59;25.83;;;10.05;;
66546;SDS011;53400;50.364;14.874;2023-03-04T02:46:25;26.27;;;9.52;;
66546;SDS011;53400;50.364;14.874;2023-03-04T02:48:51;25.08;;;9.35;;
66546;SDS011;53400;50.364;14.874;2023-03-04T02:51:17;22.25;;;9.70;;
66546;SDS011;53400;50.364;14.874;2023-03-04T02:53:43;22.27;;;9.15;;
66546;SDS011;53400;50.364;14.874;2023-03-04T02:56:09;24.73;;;9.57;;
66546;SDS011;53400;50.364;14.874;2023-03-04T02:58:35;22.30;;;9.50;;
66546;SDS011;53400;50.364;14.874;2023-03-04T03:01:04;23.88;;;9.63;;
66546;SDS011;53400;50.364;14.874;2023-03-04T03:03:30;28.42;;;10.02;;
66546;SDS011;53400;50.364;14.874;2023-03-04T03:05:56;27.23;;;9.50;;
66546;SDS011;53400;50.364;14.874;2023-03-04T03:08:22;21.23;;;9.25;;
66546;SDS011;53400;50.364;14.874;2023-03-04T03:10:48;23.65;;;9.25;;
66546;SDS011;53400;50.364;14.874;2023-03-04T03:13:14;28.75;;;10.40;;
66546;SDS011;53400;50.364;14.874;2023-03-04T03:15:40;19.70;;;9.38;;
66546;SDS011;53400;50.364;14.874;2023-03-04T03:18:08;25.73;;;8.75;;
66546;SDS011;53400;50.364;14.874;2023-03-04T03:20:35;22.65;;;8.27;;
66546;SDS011;53400;50.364;14.874;2023-03-04T03:23:01;21.33;;;8.50;;
66546;SDS011;53400;50.364;14.874;2023-03-04T03:25:28;19.10;;;8.55;;
66546;SDS011;53400;50.364;14.874;2023-03-04T03:27:54;16.50;;;7.45;;
66546;SDS011;53400;50.364;14.874;2023-03-04T03:30:20;22.70;;;8.18;;
66546;SDS011;53400;50.364;14.874;2023-03-04T03:32:45;19.58;;;8.80;;
66546;SDS011;53400;50.364;14.874;2023-03-04T03:35:13;23.67;;;9.15;;
66546;SDS011;53400;50.364;14.874;2023-03-04T03:37:39;20.85;;;7.80;;
66546;SDS011;53400;50.364;14.874;2023-03-04T03:40:05;20.02;;;8.57;;
66546;SDS011;53400;50.364;14.874;2023-03-04T03:42:32;24.45;;;8.07;;
66546;SDS011;53400;50.364;14.874;2023-03-04T03:44:58;22.65;;;8.35;;
66546;SDS011;53400;50.364;14.874;2023-03-04T03:47:24;20.27;;;8.93;;
66546;SDS011;53400;50.364;14.874;2023-03-04T03:49:50;20.95;;;8.93;;
66546;SDS011;53400;50.364;14.874;2023-03-04T03:52:17;21.75;;;8.77;;
66546;SDS011;53400;50.364;14.874;2023-03-04T03:54:43;23.80;;;8.60;;
66546;SDS011;53400;50.364;14.874;2023-03-04T03:57:09;22.55;;;8.50;;
66546;SDS011;53400;50.364;14.874;2023-03-04T03:59:35;25.45;;;9.40;;
66546;SDS011;53400;50.364;14.874;2023-03-04T04:02:01;23.55;;;8.63;;
66546;SDS011;53400;50.364;14.874;2023-03-04T04:04:26;21.67;;;8.65;;
66546;SDS011;53400;50.364;14.874;2023-03-04T04:06:52;24.30;;;9.45;;
66546;SDS011;53400;50.364;14.874;2023-03-04T04:09:20;24.77;;;10.38;;
66546;SDS011;53400;50.364;14.874;2023-03-04T04:11:45;24.08;;;9.82;;
66546;SDS011;53400;50.364;14.874;2023-03-04T04:14:11;30.17;;;11.52;;
66546;SDS011;53400;50.364;14.874;2023-03-04T04:16:38;24.33;;;10.65;;
66546;SDS011;53400;50.364;14.874;2023-03-04T04:19:04;28.02;;;11.02;;
66546;SDS011;53400;50.364;14.874;2023-03-04T04:21:29;26.55;;;10.18;;
66546;SDS011;53400;50.364;14.874;2023-03-04T04:23:56;28.77;;;11.65;;
66546;SDS011;53400;50.364;14.874;2023-03-04T04:26:23;26.25;;;10.82;;
66546;SDS011;53400;50.364;14.874;2023-03-04T04:28:49;25.45;;;9.77;;
66546;SDS011;53400;50.364;14.874;2023-03-04T04:31:14;29.52;;;11.40;;
66546;SDS011;53400;50.364;14.874;2023-03-04T04:36:07;26.42;;;10.27;;
66546;SDS011;53400;50.364;14.874;2023-03-04T04:38:37;29.80;;;12.02;;
66546;SDS011;53400;50.364;14.874;2023-03-04T04:41:03;32.55;;;10.30;;
66546;SDS011;53400;50.364;14.874;2023-03-04T04:43:31;28.15;;;11.07;;
66546;SDS011;53400;50.364;14.874;2023-03-04T04:45:58;32.33;;;11.43;;
66546;SDS011;53400;50.364;14.874;2023-03-04T04:48:24;29.23;;;12.75;;
66546;SDS011;53400;50.364;14.874;2023-03-04T04:50:52;28.67;;;11.73;;
66546;SDS011;53400;50.364;14.874;2023-03-04T04:53:19;33.83;;;13.02;;
66546;SDS011;53400;50.364;14.874;2023-03-04T04:55:45;22.35;;;9.52;;
66546;SDS011;53400;50.364;14.874;2023-03-04T04:58:11;29.67;;;12.00;;
66546;SDS011;53400;50.364;14.874;2023-03-04T05:00:38;33.60;;;12.90;;
66546;SDS011;53400;50.364;14.874;2023-03-04T05:03:04;29.20;;;12.85;;
66546;SDS011;53400;50.364;14.874;2023-03-04T05:05:30;30.60;;;11.85;;
66546;SDS011;53400;50.364;14.874;2023-03-04T05:07:56;34.10;;;13.35;;
66546;SDS011;53400;50.364;14.874;2023-03-04T05:10:22;39.05;;;14.10;;
66546;SDS011;53400;50.364;14.874;2023-03-04T05:12:48;32.03;;;12.35;;
66546;SDS011;53400;50.364;14.874;2023-03-04T05:15:14;33.45;;;14.88;;
66546;SDS011;53400;50.364;14.874;2023-03-04T05:17:41;33.42;;;13.30;;
66546;SDS011;53400;50.364;14.874;2023-03-04T05:20:08;29.02;;;13.50;;
66546;SDS011;53400;50.364;14.874;2023-03-04T05:22:35;35.50;;;14.43;;
66546;SDS011;53400;50.364;14.874;2023-03-04T05:25:01;33.60;;;13.57;;
66546;SDS011;53400;50.364;14.874;2023-03-04T05:27:27;28.23;;;12.70;;
66546;SDS011;53400;50.364;14.874;2023-03-04T05:29:53;33.75;;;13.88;;
66546;SDS011;53400;50.364;14.874;2023-03-04T05:32:20;32.00;;;14.55;;
66546;SDS011;53400;50.364;14.874;2023-03-04T05:34:47;33.00;;;13.68;;
66546;SDS011;53400;50.364;14.874;2023-03-04T05:37:13;32.95;;;12.00;;
66546;SDS011;53400;50.364;14.874;2023-03-04T05:39:39;27.65;;;10.23;;
66546;SDS011;53400;50.364;14.874;2023-03-04T05:42:05;34.20;;;14.57;;
66546;SDS011;53400;50.364;14.874;2023-03-04T05:44:31;36.15;;;13.40;;
66546;SDS011;53400;50.364;14.874;2023-03-04T05:46:57;21.33;;;8.07;;
66546;SDS011;53400;50.364;14.874;2023-03-04T05:49:23;34.47;;;15.27;;
66546;SDS011;53400;50.364;14.874;2023-03-04T05:51:50;35.10;;;14.07;;
66546;SDS011;53400;50.364;14.874;2023-03-04T05:54:16;30.10;;;13.05;;
66546;SDS011;53400;50.364;14.874;2023-03-04T05:56:42;31.48;;;11.35;;
66546;SDS011;53400;50.364;14.874;2023-03-04T05:59:08;30.77;;;11.50;;
66546;SDS011;53400;50.364;14.874;2023-03-04T06:01:34;36.60;;;15.00;;
66546;SDS011;53400;50.364;14.874;2023-03-04T06:04:00;33.55;;;14.13;;
66546;SDS011;53400;50.364;14.874;2023-03-04T06:06:26;29.23;;;12.90;;
66546;SDS011;53400;50.364;14.874;2023-03-04T06:08:53;32.88;;;14.38;;
66546;SDS011;53400;50.364;14.874;2023-03-04T06:11:19;26.48;;;11.18;;
66546;SDS011;53400;50.364;14.874;2023-03-04T06:13:45;32.78;;;13.88;;
66546;SDS011;53400;50.364;14.874;2023-03-04T06:16:11;28.58;;;11.43;;
66546;SDS011;53400;50.364;14.874;2023-03-04T06:18:38;29.25;;;11.18;;
66546;SDS011;53400;50.364;14.874;2023-03-04T06:21:04;35.58;;;14.30;;
66546;SDS011;53400;50.364;14.874;2023-03-04T06:23:30;33.75;;;13.60;;
66546;SDS011;53400;50.364;14.874;2023-03-04T06:25:58;32.75;;;13.15;;
66546;SDS011;53400;50.364;14.874;2023-03-04T06:28:25;31.27;;;14.48;;
66546;SDS011;53400;50.364;14.874;2023-03-04T06:30:51;17.25;;;9.38;;
66546;SDS011;53400;50.364;14.874;2023-03-04T06:33:17;29.23;;;12.27;;
66546;SDS011;53400;50.364;14.874;2023-03-04T06:35:43;23.50;;;10.32;;
66546;SDS011;53400;50.364;14.874;2023-03-04T06:38:09;42.47;;;16.83;;
66546;SDS011;53400;50.364;14.874;2023-03-04T06:40:35;38.60;;;16.05;;
66546;SDS011;53400;50.364;14.874;2023-03-04T06:43:02;31.27;;;13.70;;
66546;SDS011;53400;50.364;14.874;2023-03-04T06:45:28;39.15;;;16.83;;
66546;SDS011;53400;50.364;14.874;2023-03-04T06:47:54;33.92;;;15.85;;
66546;SDS011;53400;50.364;14.874;2023-03-04T06:50:20;38.28;;;15.85;;
66546;SDS011;53400;50.364;14.874;2023-03-04T06:52:46;38.50;;;17.58;;
66546;SDS011;53400;50.364;14.874;2023-03-04T06:55:13;35.78;;;13.52;;
66546;SDS011;53400;50.364;14.874;2023-03-04T06:57:39;28.25;;;12.50;;
66546;SDS011;53400;50.364;14.874;2023-03-04T07:00:08;32.92;;;15.23;;
66546;SDS011;53400;50.364;14.874;2023-03-04T07:02:34;28.73;;;13.18;;
66546;SDS011;53400;50.364;14.874;2023-03-04T07:05:00;33.13;;;13.02;;
66546;SDS011;53400;50.364;14.874;2023-03-04T07:07:26;18.35;;;9.23;;
66546;SDS011;53400;50.364;14.874;2023-03-04T07:09:53;33.85;;;13.65;;
66546;SDS011;53400;50.364;14.874;2023-03-04T07:12:18;29.25;;;12.90;;
66546;SDS011;53400;50.364;14.874;2023-03-04T07:14:45;30.75;;;13.70;;
66546;SDS011;53400;50.364;14.874;2023-03-04T07:17:12;37.17;;;15.80;;
66546;SDS011;53400;50.364;14.874;2023-03-04T07:19:38;28.88;;;11.75;;
66546;SDS011;53400;50.364;14.874;2023-03-04T07:22:04;29.67;;;13.50;;
66546;SDS011;53400;50.364;14.874;2023-03-04T07:24:31;29.35;;;12.13;;
66546;SDS011;53400;50.364;14.874;2023-03-04T07:26:57;26.73;;;14.50;;
66546;SDS011;53400;50.364;14.874;2023-03-04T07:29:24;40.00;;;16.73;;
66546;SDS011;53400;50.364;14.874;2023-03-04T07:31:50;30.73;;;15.80;;
66546;SDS011;53400;50.364;14.874;2023-03-04T07:34:17;33.65;;;13.50;;
66546;SDS011;53400;50.364;14.874;2023-03-04T07:36:43;36.17;;;15.85;;
66546;SDS011;53400;50.364;14.874;2023-03-04T07:39:10;38.55;;;17.10;;
66546;SDS011;53400;50.364;14.874;2023-03-04T07:41:38;16.55;;;9.07;;
66546;SDS011;53400;50.364;14.874;2023-03-04T07:44:05;31.63;;;14.30;;
66546;SDS011;53400;50.364;14.874;2023-03-04T07:46:32;32.13;;;13.57;;
66546;SDS011;53400;50.364;14.874;2023-03-04T07:48:58;30.98;;;13.40;;
66546;SDS011;53400;50.364;14.874;2023-03-04T07:51:26;22.30;;;10.85;;
66546;SDS011;53400;50.364;14.874;2023-03-04T07:53:52;20.13;;;10.65;;
66546;SDS011;53400;50.364;14.874;2023-03-04T07:56:21;31.30;;;12.35;;
66546;SDS011;53400;50.364;14.874;2023-03-04T07:58:49;28.70;;;11.88;;
66546;SDS011;53400;50.364;14.874;2023-03-04T08:01:19;22.92;;;11.30;;
66546;SDS011;53400;50.364;14.874;2023-03-04T08:03:47;27.00;;;13.55;;
66546;SDS011;53400;50.364;14.874;2023-03-04T08:06:14;26.55;;;11.68;;
66546;SDS011;53400;50.364;14.874;2023-03-04T08:08:43;29.77;;;13.05;;
66546;SDS011;53400;50.364;14.874;2023-03-04T08:11:10;30.50;;;12.57;;
66546;SDS011;53400;50.364;14.874;2023-03-04T08:13:37;25.45;;;11.13;;
66546;SDS011;53400;50.364;14.874;2023-03-04T08:16:03;22.42;;;10.07;;
66546;SDS011;53400;50.364;14.874;2023-03-04T08:18:30;30.05;;;12.07;;
66546;SDS011;53400;50.364;14.874;2023-03-04T08:20:56;23.50;;;11.73;;
66546;SDS011;53400;50.364;14.874;2023-03-04T08:23:22;24.17;;;11.30;;
66546;SDS011;53400;50.364;14.874;2023-03-04T08:25:50;18.05;;;7.40;;
66546;SDS011;53400;50.364;14.874;2023-03-04T08:28:16;21.98;;;10.05;;
66546;SDS011;53400;50.364;14.874;2023-03-04T08:30:42;23.13;;;11.43;;
66546;SDS011;53400;50.364;14.874;2023-03-04T08:33:08;22.17;;;10.50;;
66546;SDS011;53400;50.364;14.874;2023-03-04T08:35:35;21.92;;;10.15;;
66546;SDS011;53400;50.364;14.874;2023-03-04T08:38:02;22.48;;;10.43;;
66546;SDS011;53400;50.364;14.874;2023-03-04T08:40:27;18.13;;;10.35;;
66546;SDS011;53400;50.364;14.874;2023-03-04T08:42:57;15.95;;;9.85;;
66546;SDS011;53400;50.364;14.874;2023-03-04T08:45:24;17.05;;;8.10;;
66546;SDS011;53400;50.364;14.874;2023-03-04T08:47:50;24.38;;;11.13;;
66546;SDS011;53400;50.364;14.874;2023-03-04T08:50:16;17.20;;;8.95;;
66546;SDS011;53400;50.364;14.874;2023-03-04T08:52:42;23.95;;;10.50;;
66546;SDS011;53400;50.364;14.874;2023-03-04T08:55:08;17.30;;;7.90;;
66546;SDS011;53400;50.364;14.874;2023-03-04T08:57:35;26.80;;;11.52;;
66546;SDS011;53400;50.364;14.874;2023-03-04T09:00:02;22.05;;;9.50;;
66546;SDS011;53400;50.364;14.874;2023-03-04T09:02:28;20.73;;;8.45;;
66546;SDS011;53400;50.364;14.874;2023-03-04T09:04:54;19.27;;;7.68;;
66546;SDS011;53400;50.364;14.874;2023-03-04T09:07:20;19.55;;;10.35;;
66546;SDS011;53400;50.364;14.874;2023-03-04T09:09:46;18.80;;;9.63;;
66546;SDS011;53400;50.364;14.874;2023-03-04T09:12:12;14.15;;;6.65;;
66546;SDS011;53400;50.364;14.874;2023-03-04T09:14:41;20.17;;;9.90;;
66546;SDS011;53400;50.364;14.874;2023-03-04T09:17:08;20.52;;;8.98;;
66546;SDS011;53400;50.364;14.874;2023-03-04T09:19:35;21.52;;;11.05;;
66546;SDS011;53400;50.364;14.874;2023-03-04T09:22:01;15.13;;;7.63;;
66546;SDS011;53400;50.364;14.874;2023-03-04T09:24:27;18.50;;;7.25;;
66546;SDS011;53400;50.364;14.874;2023-03-04T09:26:54;21.55;;;9.70;;
66546;SDS011;53400;50.364;14.874;2023-03-04T09:29:19;14.45;;;6.90;;
66546;SDS011;53400;50.364;14.874;2023-03-04T09:31:46;24.30;;;10.10;;
66546;SDS011;53400;50.364;14.874;2023-03-04T09:34:13;14.60;;;8.05;;
66546;SDS011;53400;50.364;14.874;2023-03-04T09:36:39;22.65;;;10.88;;
66546;SDS011;53400;50.364;14.874;2023-03-04T09:39:05;25.25;;;10.65;;
66546;SDS011;53400;50.364;14.874;2023-03-04T09:41:33;22.23;;;10.32;;
66546;SDS011;53400;50.364;14.874;2023-03-04T09:44:03;22.73;;;11.32;;
66546;SDS011;53400;50.364;14.874;2023-03-04T09:46:36;16.08;;;8.00;;
66546;SDS011;53400;50.364;14.874;2023-03-04T09:49:05;23.95;;;10.07;;
66546;SDS011;53400;50.364;14.874;2023-03-04T09:51:45;25.35;;;10.93;;
66546;SDS011;53400;50.364;14.874;2023-03-04T09:54:17;27.02;;;11.27;;
66546;SDS011;53400;50.364;14.874;2023-03-04T09:56:56;23.50;;;10.63;;
66546;SDS011;53400;50.364;14.874;2023-03-04T09:59:29;23.98;;;12.75;;
66546;SDS011;53400;50.364;14.874;2023-03-04T10:02:01;23.27;;;10.40;;
66546;SDS011;53400;50.364;14.874;2023-03-04T10:04:41;15.02;;;8.27;;
66546;SDS011;53400;50.364;14.874;2023-03-04T10:07:16;20.30;;;8.77;;
66546;SDS011;53400;50.364;14.874;2023-03-04T10:09:47;20.17;;;10.77;;
66546;SDS011;53400;50.364;14.874;2023-03-04T10:12:20;24.52;;;10.82;;
66546;SDS011;53400;50.364;14.874;2023-03-04T10:14:50;20.13;;;9.35;;
66546;SDS011;53400;50.364;14.874;2023-03-04T10:17:20;19.05;;;8.73;;
66546;SDS011;53400;50.364;14.874;2023-03-04T10:19:55;18.38;;;8.05;;
66546;SDS011;53400;50.364;14.874;2023-03-04T10:22:31;13.77;;;7.45;;
66546;SDS011;53400;50.364;14.874;2023-03-04T10:25:00;28.52;;;8.75;;
66546;SDS011;53400;50.364;14.874;2023-03-04T10:27:39;22.90;;;9.40;;
66546;SDS011;53400;50.364;14.874;2023-03-04T10:30:09;19.33;;;9.52;;
66546;SDS011;53400;50.364;14.874;2023-03-04T10:32:44;20.67;;;9.70;;
66546;SDS011;53400;50.364;14.874;2023-03-04T10:35:10;26.27;;;11.50;;
66546;SDS011;53400;50.364;14.874;2023-03-04T10:37:46;25.90;;;11.05;;
66546;SDS011;53400;50.364;14.874;2023-03-04T10:40:19;19.20;;;8.60;;
66546;SDS011;53400;50.364;14.874;2023-03-04T10:42:47;13.75;;;7.35;;
66546;SDS011;53400;50.364;14.874;2023-03-04T10:45:18;19.98;;;9.65;;
66546;SDS011;53400;50.364;14.874;2023-03-04T10:47:50;24.20;;;9.88;;
66546;SDS011;53400;50.364;14.874;2023-03-04T10:50:20;26.52;;;11.13;;
66546;SDS011;53400;50.364;14.874;2023-03-04T10:52:49;20.27;;;10.07;;
66546;SDS011;53400;50.364;14.874;2023-03-04T10:55:17;19.30;;;9.93;;
66546;SDS011;53400;50.364;14.874;2023-03-04T10:57:47;19.60;;;11.77;;
66546;SDS011;53400;50.364;14.874;2023-03-04T11:00:22;20.40;;;9.30;;
66546;SDS011;53400;50.364;14.874;2023-03-04T11:02:51;20.90;;;9.15;;
66546;SDS011;53400;50.364;14.874;2023-03-04T11:05:17;18.15;;;8.82;;
66546;SDS011;53400;50.364;14.874;2023-03-04T11:07:47;20.00;;;8.68;;
66546;SDS011;53400;50.364;14.874;2023-03-04T11:10:16;18.23;;;9.73;;
66546;SDS011;53400;50.364;14.874;2023-03-04T11:12:48;19.88;;;7.95;;
66546;SDS011;53400;50.364;14.874;2023-03-04T11:15:18;21.30;;;9.98;;
66546;SDS011;53400;50.364;14.874;2023-03-04T11:17:52;21.63;;;8.75;;
66546;SDS011;53400;50.364;14.874;2023-03-04T11:23:10;18.63;;;8.73;;
66546;SDS011;53400;50.364;14.874;2023-03-04T11:25:41;20.45;;;8.95;;
66546;SDS011;53400;50.364;14.874;2023-03-04T11:28:11;22.80;;;9.73;;
66546;SDS011;53400;50.364;14.874;2023-03-04T11:30:43;21.50;;;9.20;;
66546;SDS011;53400;50.364;14.874;2023-03-04T11:33:16;18.67;;;11.02;;
66546;SDS011;53400;50.364;14.874;2023-03-04T11:35:49;16.05;;;8.98;;
66546;SDS011;53400;50.364;14.874;2023-03-04T11:38:28;20.10;;;10.52;;
66546;SDS011;53400;50.364;14.874;2023-03-04T11:41:01;17.60;;;8.05;;
66546;SDS011;53400;50.364;14.874;2023-03-04T11:43:31;21.33;;;9.68;;
66546;SDS011;53400;50.364;14.874;2023-03-04T11:48:56;22.98;;;9.57;;
66546;SDS011;53400;50.364;14.874;2023-03-04T11:51:36;18.50;;;8.27;;
66546;SDS011;53400;50.364;14.874;2023-03-04T11:54:16;19.95;;;9.52;;
66546;SDS011;53400;50.364;14.874;2023-03-04T11:56:50;17.38;;;8.32;;
66546;SDS011;53400;50.364;14.874;2023-03-04T11:59:24;19.02;;;8.25;;
66546;SDS011;53400;50.364;14.874;2023-03-04T12:02:09;18.52;;;8.63;;
66546;SDS011;53400;50.364;14.874;2023-03-04T12:04:39;18.88;;;8.45;;
66546;SDS011;53400;50.364;14.874;2023-03-04T12:07:24;16.13;;;8.40;;
66546;SDS011;53400;50.364;14.874;2023-03-04T12:10:08;14.63;;;7.03;;
66546;SDS011;53400;50.364;14.874;2023-03-04T12:12:49;13.77;;;6.75;;
66546;SDS011;53400;50.364;14.874;2023-03-04T12:15:31;11.15;;;5.40;;
66546;SDS011;53400;50.364;14.874;2023-03-04T12:18:20;11.65;;;5.22;;
66546;SDS011;53400;50.364;14.874;2023-03-04T12:20:57;12.07;;;5.63;;
66546;SDS011;53400;50.364;14.874;2023-03-04T12:23:41;11.25;;;4.93;;
66546;SDS011;53400;50.364;14.874;2023-03-04T12:26:24;11.85;;;5.32;;
66546;SDS011;53400;50.364;14.874;2023-03-04T12:29:00;9.35;;;4.07;;
66546;SDS011;53400;50.364;14.874;2023-03-04T12:31:33;11.10;;;5.35;;
66546;SDS011;53400;50.364;14.874;2023-03-04T12:34:05;9.60;;;4.65;;
66546;SDS011;53400;50.364;14.874;2023-03-04T12:36:53;10.98;;;5.22;;
66546;SDS011;53400;50.364;14.874;2023-03-04T12:39:30;13.55;;;5.07;;
66546;SDS011;53400;50.364;14.874;2023-03-04T12:42:03;11.90;;;5.10;;
66546;SDS011;53400;50.364;14.874;2023-03-04T12:44:37;10.93;;;4.57;;
66546;SDS011;53400;50.364;14.874;2023-03-04T12:47:16;10.25;;;5.07;;
66546;SDS011;53400;50.364;14.874;2023-03-04T12:49:54;9.63;;;5.15;;
66546;SDS011;53400;50.364;14.874;2023-03-04T12:52:36;9.05;;;4.40;;
66546;SDS011;53400;50.364;14.874;2023-03-04T12:55:09;14.65;;;5.60;;
66546;SDS011;53400;50.364;14.874;2023-03-04T12:57:40;10.15;;;4.80;;
66546;SDS011;53400;50.364;14.874;2023-03-04T13:00:12;10.40;;;5.00;;
66546;SDS011;53400;50.364;14.874;2023-03-04T13:02:52;9.05;;;4.53;;
66546;SDS011;53400;50.364;14.874;2023-03-04T13:08:22;10.40;;;4.40;;
66546;SDS011;53400;50.364;14.874;2023-03-04T13:10:59;8.93;;;4.13;;
66546;SDS011;53400;50.364;14.874;2023-03-04T13:13:36;8.45;;;4.20;;
66546;SDS011;53400;50.364;14.874;2023-03-04T13:16:05;11.00;;;4.15;;
66546;SDS011;53400;50.364;14.874;2023-03-04T13:18:51;8.43;;;4.10;;
66546;SDS011;53400;50.364;14.874;2023-03-04T13:21:21;9.07;;;4.00;;
66546;SDS011;53400;50.364;14.874;2023-03-04T13:23:52;8.77;;;3.33;;
66546;SDS011;53400;50.364;14.874;2023-03-04T13:26:22;7.43;;;3.90;;
66546;SDS011;53400;50.364;14.874;2023-03-04T13:29:32;6.97;;;3.42;;
66546;SDS011;53400;50.364;14.874;2023-03-04T13:31:59;6.75;;;3.10;;
66546;SDS011;53400;50.364;14.874;2023-03-04T13:34:46;7.55;;;3.55;;
66546;SDS011;53400;50.364;14.874;2023-03-04T13:37:27;8.63;;;3.60;;
66546;SDS011;53400;50.364;14.874;2023-03-04T13:45:53;6.30;;;3.00;;
66546;SDS011;53400;50.364;14.874;2023-03-04T13:48:29;6.47;;;3.20;;
66546;SDS011;53400;50.364;14.874;2023-03-04T13:51:01;7.30;;;2.90;;
66546;SDS011;53400;50.364;14.874;2023-03-04T13:53:42;7.43;;;3.17;;
66546;SDS011;53400;50.364;14.874;2023-03-04T13:56:20;9.38;;;3.17;;
66546;SDS011;53400;50.364;14.874;2023-03-04T14:01:55;5.93;;;2.40;;
66546;SDS011;53400;50.364;14.874;2023-03-04T14:04:26;6.25;;;2.88;;
66546;SDS011;53400;50.364;14.874;2023-03-04T14:06:55;10.23;;;4.20;;
66546;SDS011;53400;50.364;14.874;2023-03-04T14:09:24;10.50;;;4.28;;
66546;SDS011;53400;50.364;14.874;2023-03-04T14:11:52;11.32;;;6.45;;
66546;SDS011;53400;50.364;14.874;2023-03-04T14:14:21;7.70;;;4.05;;
66546;SDS011;53400;50.364;14.874;2023-03-04T14:16:51;13.20;;;6.18;;
66546;SDS011;53400;50.364;14.874;2023-03-04T14:19:22;7.22;;;3.08;;
66546;SDS011;53400;50.364;14.874;2023-03-04T14:21:51;8.48;;;3.72;;
66546;SDS011;53400;50.364;14.874;2023-03-04T14:24:18;10.60;;;5.35;;
66546;SDS011;53400;50.364;14.874;2023-03-04T14:26:46;10.32;;;4.35;;
66546;SDS011;53400;50.364;14.874;2023-03-04T14:29:19;7.53;;;3.60;;
66546;SDS011;53400;50.364;14.874;2023-03-04T14:31:48;9.23;;;3.85;;
66546;SDS011;53400;50.364;14.874;2023-03-04T14:34:16;6.28;;;3.20;;
66546;SDS011;53400;50.364;14.874;2023-03-04T14:36:48;6.63;;;3.17;;
66546;SDS011;53400;50.364;14.874;2023-03-04T14:39:15;7.50;;;3.80;;
66546;SDS011;53400;50.364;14.874;2023-03-04T14:41:43;8.90;;;3.92;;
66546;SDS011;53400;50.364;14.874;2023-03-04T14:44:13;9.65;;;4.22;;
66546;SDS011;53400;50.364;14.874;2023-03-04T14:46:51;8.35;;;3.78;;
66546;SDS011;53400;50.364;14.874;2023-03-04T14:49:21;11.02;;;4.13;;
66546;SDS011;53400;50.364;14.874;2023-03-04T14:51:48;9.80;;;3.97;;